Current | Forecast
Updated: 5:30 AM EEST on August 21, 2017
Observed at Odessa, Republic of Moldova
Temperature 21°C
Humidity 60%
Dew Point 13°C
Wind North at 11 km/h
Pressure 1011 hPa (Steady)
Conditions Clear
Visibility -
UV N/A
Clouds
Yesterday's Maximum 34°C
Yesterday's Minimum 20°C approx.
Yesterday's Cooling Degree Days 16 approx.
Sunrise6:06 AM EEST
Sunset7:59 PM EEST
Moon Rise5:25 AM EEST
Moon Set7:53 PM EEST
Moon PhaseMoon Phase
Waning Crescent
Raw METARMETAR UKOO 210230Z 01003MPS CAVOK 21/13 Q1011 R16/090060 NOSIG


Monday
. High: 62° F.
Tuesday
. High: 68° F.
Wednesday
. High: 68° F.
Thursday
. High: 69° F.
Friday
. High: 66° F.
Saturday
. High: 57° F.
Sunday
. High: 64° F.
Monday
. High: 69° F.

Units: English | Metric

Find the Weather for any City, State or Zipcode, or Country:

U.S. State List | Severe Weather | Tropical Storms | Ski Conditions
United States | Canada | Central America | South America | Asia | Europe | Australia | Africa | Islands

Weather Underground

© Copyright 2017
The Weather Company, LLC